• Join FlightAware (Why Join?)
  • Login
  • US Flag 
11:27PM EDT


 

Airport Tracker/Info


-or-


 

Live Flight TrackerFlight Track Log ✈ N156G ✈ 24-Jul-2013 ✈ KAVX - KDVT

Flight Track Log - Related Links

Times and Time Zones

All times are in EDT time to prevent confusion due to time zone crossing. See the N156G flight status page for this flight to view local times or setup timezone preferences in your user account.

Time Position Orientation Groundspeed Altitude Reporting Facility
EDT Latitude Longitude Course Direction KTS MPH feet Rate Location/Type
04:38PM 33.4000 -118.4167 40° Northeast 76 87 1,600  Level Southern California TRACON
04:40PM 33.3833 -118.4167 180° South 260 299 4,000 1,140 Climbing Southern California TRACON
04:41PM 33.4086 -118.3864 45° Northeast 140 161 5,200 1,080 Climbing Los Angeles Center
04:42PM 33.4356 -118.3544 45° Northeast 137 158 6,400 1,260 Climbing Los Angeles Center
04:43PM 33.5236 -118.2764 40° Northeast  Level FlightAware Approximate
04:43PM 33.4647 -118.3244 41° Northeast 138 159 7,900  Level Los Angeles Center
04:44PM 33.5039 -118.2922 34° Northeast 142 163 9,400 1,260 Climbing Los Angeles Center
04:45PM 33.5361 -118.2633 37° Northeast 144 166 10,600 720 Climbing Los Angeles Center
04:46PM 33.5719 -118.2342 34° Northeast 149 171 11,000 180 Climbing Los Angeles Center
04:47PM 33.6036 -118.1928 47° Northeast 169 194 11,000 420 Level Los Angeles Center
04:48PM 33.6119 -118.1372 80° East 173 199 11,900 960 Climbing Los Angeles Center
04:49PM 33.6425 -118.0997 46° Northeast 169 194 13,000 540 Climbing Los Angeles Center
04:50PM 33.6897 -118.0881 12° North 175 201 13,100 660 Climbing Los Angeles Center
04:51PM 33.7311 -118.0728 17° North 157 181 14,400 900 Climbing Los Angeles Center
04:52PM 33.7775 -118.0586 14° North 170 196 15,000 240 Climbing Los Angeles Center
04:53PM 33.7847 -118.0006 81° East 181 208 15,000  Level Los Angeles Center
04:54PM 33.7769 -117.9342 98° East 169 194 15,000  Level Los Angeles Center
04:55PM 33.7750 -117.8875 93° East 173 199 15,000 540 Level Los Angeles Center
04:56PM 33.7703 -117.8153 94° East 180 207 16,200 960 Climbing Los Angeles Center
04:57PM 33.7700 -117.7672 90° East 152 175 17,000 960 Climbing Los Angeles Center
04:58PM 33.7672 -117.7144 94° East 155 178 18,200 960 Climbing Los Angeles Center
04:59PM 33.7650 -117.6619 93° East 157 181 19,000 360 Climbing Los Angeles Center
05:00PM 33.7628 -117.5925 92° East 170 196 19,000  Level Los Angeles Center
05:01PM 33.7592 -117.5336 94° East 175 201 19,100 600 Climbing Los Angeles Center
05:02PM 33.7589 -117.4789 90° East 168 193 20,300 900 Climbing Los Angeles Center
05:04PM 33.7536 -117.4256 97° East 162 186 21,000 300 Climbing Los Angeles Center
05:05PM 33.7472 -117.3661 97° East 174 200 21,000  Level Los Angeles Center
05:06PM 33.7433 -117.2861 93° East 172 198 21,000  Level Los Angeles Center
05:07PM 33.7383 -117.2286 96° East 172 198 21,000  Level Los Angeles Center
05:08PM 33.7347 -117.1714 94° East 172 198 21,000  Level Los Angeles Center
05:09PM 33.7292 -117.1136 97° East 175 201 21,000  Level Los Angeles Center
05:10PM 33.7250 -117.0547 95° East 175 201 21,000  Level Los Angeles Center
05:11PM 33.7211 -116.9944 94° East 181 208 21,000  Level Los Angeles Center
05:12PM 33.7178 -116.9222 93° East 181 208 21,000  Level Los Angeles Center
05:13PM 33.7183 -116.8603 89° East 184 212 21,000  Level Los Angeles Center
05:14PM 33.7108 -116.7947 98° East 188 216 21,100  Climbing Los Angeles Center
05:15PM 33.6939 -116.7375 110° East 186 214 21,000 -60 Descending Los Angeles Center
05:16PM 33.6711 -116.6842 117° Southeast 181 208 21,000  Level Los Angeles Center
05:17PM 33.6600 -116.6253 103° East 184 212 21,000  Level Los Angeles Center
05:18PM 33.6653 -116.5647 84° East 182 209 21,000  Level Los Angeles Center
05:19PM 33.6581 -116.4908 97° East 185 213 21,000  Level Los Angeles Center
05:20PM 33.6500 -116.4175 97° East 185 213 21,000  Level Los Angeles Center
05:22PM 33.6444 -116.3578 96° East 181 208 21,000  Level Los Angeles Center
05:23PM 33.6389 -116.2858 95° East 180 207 21,000  Level Los Angeles Center
05:24PM 33.6331 -116.2272 97° East 178 205 21,000  Level Los Angeles Center
05:25PM 33.6264 -116.1544 96° East 182 209 21,000  Level Los Angeles Center
05:26PM 33.6242 -116.0939 93° East 180 207 21,000  Level Los Angeles Center
05:27PM 33.6244 -116.0331 90° East 183 211 21,000  Level Los Angeles Center
05:28PM 33.6225 -115.9744 92° East 179 206 21,000  Level Los Angeles Center
05:29PM 33.6233 -115.9136 89° East 181 208 21,000  Level Los Angeles Center
05:30PM 33.6219 -115.8528 92° East 181 208 21,000  Level Los Angeles Center
05:31PM 33.6200 -115.7808 92° East 180 207 21,000  Level Los Angeles Center
05:32PM 33.6183 -115.7208 92° East 179 206 21,000  Level Los Angeles Center
05:33PM 33.6161 -115.6469 92° East 183 211 21,000  Level Los Angeles Center
05:34PM 33.6150 -115.5861 91° East 183 211 21,000  Level Los Angeles Center
05:35PM 33.6139 -115.5261 91° East 180 207 21,000  Level Los Angeles Center
05:36PM 33.6125 -115.4656 92° East 181 208 21,000  Level Los Angeles Center
05:37PM 33.6108 -115.3928 92° East 183 211 21,000  Level Los Angeles Center
05:39PM 33.6089 -115.3306 92° East 186 214 21,000  Level Los Angeles Center
05:40PM 33.6083 -115.2706 91° East 182 209 21,000  Level Los Angeles Center
05:41PM 33.6072 -115.2094 91° East 183 211 21,000  Level Los Angeles Center
05:42PM 33.6058 -115.1478 92° East 183 211 21,000  Level Los Angeles Center
05:43PM 33.6025 -115.0881 94° East 180 207 21,000  Level Los Angeles Center
05:44PM 33.6017 -115.0139 91° East 183 211 21,000  Level Los Angeles Center
05:45PM 33.5994 -114.9528 92° East 183 211 21,000  Level Los Angeles Center
05:46PM 33.5983 -114.8908 91° East 186 214 21,000  Level Los Angeles Center
05:47PM 33.5969 -114.8297 92° East 185 213 21,000  Level Los Angeles Center
05:48PM 33.5956 -114.7694 92° East 182 209 21,000  Level Los Angeles Center
05:49PM 33.5906 -114.6961 95° East 183 211 21,000  Level Los Angeles Center
05:50PM 33.5836 -114.6353 98° East 185 213 21,000  Level Los Angeles Center
05:51PM 33.5789 -114.5769 96° East 177 204 21,000  Level Los Angeles Center
05:52PM 33.5719 -114.5147 98° East 185 213 21,000  Level Los Angeles Center
05:53PM 33.5678 -114.4578 95° East 173 199 21,000  Level Los Angeles Center
05:54PM 33.5611 -114.3972 98° East 181 208 21,000  Level Los Angeles Center
05:55PM 33.5625 -114.3642 87° East 177 204 21,000 -120 Level Albuquerque Center
05:56PM 33.5589 -114.2992 94° East 177 204 20,900  Descending Albuquerque Center
05:57PM 33.5508 -114.2458 100° East 179 206 21,000 -360 Climbing Albuquerque Center
05:58PM 33.5447 -114.1733 96° East 180 207 20,200 -840 Descending Albuquerque Center
05:59PM 33.5397 -114.1131 96° East 182 209 19,300 -1,020 Descending Albuquerque Center
06:00PM 33.5361 -114.0550 94° East 178 205 18,200 -1,080 Descending Albuquerque Center
06:01PM 33.5319 -113.9903 94° East 178 205 17,100 -600 Descending Albuquerque Center
06:02PM 33.5278 -113.9369 95° East 178 205 17,000  Descending Albuquerque Center
06:03PM 33.5311 -113.8789 86° East 176 203 17,100  Climbing Albuquerque Center
06:04PM 33.5367 -113.8186 84° East 179 206 17,100 -60 Level Albuquerque Center
06:05PM 33.5425 -113.7475 84° East 180 207 17,000 -60 Descending Albuquerque Center
06:06PM 33.5497 -113.6900 81° East 177 204 17,000 -120 Level Albuquerque Center
06:07PM 33.5542 -113.6319 85° East 175 201 16,800 -540 Descending Albuquerque Center
06:08PM 33.5606 -113.5731 83° East 176 203 15,900 -900 Descending Albuquerque Center
06:09PM 33.5672 -113.5172 82° East 172 198 15,000 -840 Descending Albuquerque Center
06:10PM 33.5714 -113.4619 85° East 168 193 14,200 -840 Descending Albuquerque Center
06:11PM 33.5758 -113.4089 84° East 163 188 13,300 -900 Descending Albuquerque Center
06:12PM 33.5836 -113.3542 80° East 164 189 12,400 -900 Descending Albuquerque Center
06:13PM 33.5903 -113.2928 83° East 158 182 11,500 -660 Descending Albuquerque Center
06:14PM 33.5961 -113.2419 82° East 156 180 11,100 -300 Descending Albuquerque Center
06:15PM 33.5997 -113.1881 85° East 159 183 11,000 -60 Descending Albuquerque Center
06:16PM 33.6039 -113.1344 85° East 160 184 11,000  Level Albuquerque Center
06:17PM 33.6078 -113.0733 86° East 159 183 11,100 -360 Climbing Albuquerque Center
06:18PM 33.6181 -113.0322 73° East 158 182 10,300 -1,020 Descending Albuquerque Center
06:19PM 33.6381 -112.9769 66° East 164 189 9,200 -1,140 Descending Albuquerque Center
06:20PM 33.6525 -112.9247 72° East 173 199 8,200 -1,020 Descending Albuquerque Center
06:21PM 33.6669 -112.8728 72° East 169 194 7,300 -900 Descending Albuquerque Center
06:22PM 33.6792 -112.8086 77° East 176 203 6,300 -600 Descending Albuquerque Center
06:23PM 33.6950 -112.7536 71° East 177 204 6,100 -180 Descending Albuquerque Center
06:24PM 33.7111 -112.6986 71° East 173 199 6,000  Descending Albuquerque Center
06:25PM 33.7300 -112.6478 66° East 176 203 6,100  Climbing Albuquerque Center
06:26PM 33.7497 -112.5792 71° East 207 238 6,000  Descending Albuquerque Center
06:27PM 33.7669 -112.5192 71° East 185 213 6,100  Climbing Albuquerque Center
06:29PM 33.7781 -112.4625 77° East 178 205 6,100  Level Albuquerque Center
06:30PM 33.7797 -112.3892 88° East 182 209 6,100  Level Albuquerque Center
06:31PM 33.7783 -112.3311 92° East 177 204 6,100 -300 Level Albuquerque Center
06:32PM 33.7711 -112.2744 99° East 172 198 5,500 -900 Descending Albuquerque Center
06:33PM 33.7525 -112.2181 112° Southeast 181 208 4,300 -960 Descending Albuquerque Center
06:34PM 33.7372 -112.1675 110° East 165 190 3,600 -600 Descending Albuquerque Center
06:35PM 33.7217 -112.1289 116° Southeast 134 154 3,100 -300 Descending Albuquerque Center
06:36PM 33.7175 -112.0858 97° East 136 157 3,000 -180 Descending Albuquerque Center
06:37PM 33.7164 -112.0333 91° East 133 153 2,800 -240 Descending Albuquerque Center
06:38PM 33.6897 -112.0244 164° South 139 160 2,600 -300 Descending Albuquerque Center
06:39PM 33.6936 -112.0564 278° West 122 140 2,200 -420 Descending Albuquerque Center